createdAt,value
2018-09-17T00:01:49.116Z,27.17
2018-09-17T00:04:22.209Z,29.40
2018-09-17T00:06:55.300Z,31.37
2018-09-17T00:09:28.368Z,29.30
2018-09-17T00:12:01.653Z,32.47
2018-09-17T00:14:34.478Z,36.07
2018-09-17T00:17:07.783Z,23.53
2018-09-17T00:19:40.630Z,32.63
2018-09-17T00:22:14.116Z,28.20
2018-09-17T00:24:46.818Z,24.67
2018-09-17T00:27:19.841Z,23.60
2018-09-17T00:29:52.559Z,24.97
2018-09-17T00:32:25.911Z,21.07
2018-09-17T00:34:59.089Z,19.57
2018-09-17T00:37:32.041Z,20.13
2018-09-17T00:40:04.781Z,16.53
2018-09-17T00:42:37.688Z,15.47
2018-09-17T00:45:10.419Z,17.20
2018-09-17T00:47:43.397Z,26.80
2018-09-17T00:50:16.367Z,25.87
2018-09-17T00:52:49.592Z,35.33
2018-09-17T00:55:22.529Z,43.10
2018-09-17T00:57:55.626Z,42.93
2018-09-17T01:00:28.688Z,43.73
2018-09-17T01:03:01.576Z,42.47
2018-09-17T01:05:34.449Z,45.40
2018-09-17T01:08:07.299Z,77.67
2018-09-17T01:10:40.255Z,44.07
2018-09-17T01:13:13.569Z,49.13
2018-09-17T01:15:46.459Z,41.07
2018-09-17T01:18:19.300Z,39.20
2018-09-17T01:20:52.223Z,36.40
2018-09-17T01:23:24.977Z,37.03
2018-09-17T01:25:58.039Z,31.73
2018-09-17T01:28:31.006Z,30.97
2018-09-17T01:31:03.958Z,33.83
2018-09-17T01:33:36.758Z,37.50
2018-09-17T01:36:09.739Z,37.93
2018-09-17T01:38:43.174Z,34.53
2018-09-17T01:41:16.326Z,37.33
2018-09-17T01:43:49.809Z,50.97
2018-09-17T01:46:23.236Z,45.70
2018-09-17T01:48:56.367Z,43.93
2018-09-17T01:51:29.304Z,41.93
2018-09-17T01:54:02.642Z,41.57
2018-09-17T01:56:35.648Z,40.00
2018-09-17T01:59:08.609Z,37.70
2018-09-17T02:01:41.630Z,46.13
2018-09-17T02:04:14.530Z,56.43
2018-09-17T02:06:47.489Z,44.63
2018-09-17T02:09:20.325Z,44.63
2018-09-17T02:11:53.589Z,40.03
2018-09-17T02:14:26.513Z,37.13
2018-09-17T02:16:59.575Z,39.10
2018-09-17T02:19:32.666Z,43.87
2018-09-17T02:22:05.527Z,44.10
2018-09-17T02:24:38.622Z,46.27
2018-09-17T02:27:11.844Z,58.33
2018-09-17T02:29:44.588Z,66.97
2018-09-17T02:32:17.395Z,53.20
2018-09-17T02:34:50.552Z,47.77
2018-09-17T02:37:23.447Z,48.23
2018-09-17T02:39:56.445Z,32.60
2018-09-17T02:42:29.452Z,16.70
2018-09-17T02:45:02.197Z,13.43
2018-09-17T02:47:35.255Z,10.90
2018-09-17T02:50:09.007Z,9.17
2018-09-17T02:52:41.972Z,10.67
2018-09-17T02:55:15.692Z,9.87
2018-09-17T02:57:49.233Z,9.50
2018-09-17T03:00:22.712Z,9.77
2018-09-17T03:02:56.206Z,6.77
2018-09-17T03:05:30.050Z,9.40
2018-09-17T03:08:03.054Z,8.20
2018-09-17T03:10:36.259Z,7.87
2018-09-17T03:13:09.436Z,8.83
2018-09-17T03:15:52.427Z,8.07
2018-09-17T03:18:36.495Z,8.50
2018-09-17T03:21:09.886Z,7.70
2018-09-17T03:23:43.070Z,8.93
2018-09-17T03:26:16.020Z,8.77
2018-09-17T03:28:49.122Z,12.20
2018-09-17T03:31:22.165Z,11.03
2018-09-17T03:33:55.416Z,6.57
2018-09-17T03:36:28.300Z,7.33
2018-09-17T03:39:01.087Z,8.10
2018-09-17T03:41:33.820Z,10.93
2018-09-17T03:44:07.439Z,7.90
2018-09-17T03:46:40.385Z,6.53
2018-09-17T03:49:13.359Z,9.37
2018-09-17T03:51:46.222Z,10.67
2018-09-17T03:54:19.287Z,9.47
2018-09-17T03:56:52.716Z,8.10
2018-09-17T03:59:26.248Z,7.40
2018-09-17T04:01:58.977Z,7.43
2018-09-17T04:04:32.448Z,8.57
2018-09-17T04:07:05.281Z,11.00
2018-09-17T04:09:39.019Z,7.90
2018-09-17T04:12:11.756Z,10.07
2018-09-17T04:14:44.584Z,8.03
2018-09-17T04:17:17.441Z,8.70
2018-09-17T04:19:50.404Z,6.43
2018-09-17T04:22:23.207Z,7.00
2018-09-17T04:24:56.486Z,6.33
2018-09-17T04:27:29.231Z,6.33
2018-09-17T04:30:02.041Z,9.57
2018-09-17T04:32:35.574Z,7.00
2018-09-17T04:35:09.936Z,6.97
2018-09-17T04:37:43.365Z,9.83
2018-09-17T04:40:16.524Z,7.07
2018-09-17T04:42:49.254Z,6.20
2018-09-17T04:45:22.149Z,7.40
2018-09-17T04:47:55.004Z,7.93
2018-09-17T04:50:28.124Z,6.60
2018-09-17T04:53:01.190Z,6.87
2018-09-17T04:55:33.905Z,8.77
2018-09-17T04:58:07.923Z,7.97
2018-09-17T05:00:40.770Z,6.27
2018-09-17T05:03:14.349Z,9.07
2018-09-17T05:05:47.137Z,6.77
2018-09-17T05:08:20.019Z,9.37
2018-09-17T05:10:52.860Z,8.10
2018-09-17T05:13:26.075Z,5.70
2018-09-17T05:15:58.890Z,10.70
2018-09-17T05:18:31.879Z,7.20
2018-09-17T05:21:04.660Z,7.53
2018-09-17T05:23:37.639Z,6.47
2018-09-17T05:26:10.483Z,5.93
2018-09-17T05:28:43.377Z,6.90
2018-09-17T05:31:16.685Z,6.00
2018-09-17T05:33:49.506Z,7.67
2018-09-17T05:36:22.700Z,9.00
2018-09-17T05:38:56.039Z,7.03
2018-09-17T05:41:29.668Z,5.90
2018-09-17T05:44:03.205Z,7.70
2018-09-17T05:46:36.055Z,10.70
2018-09-17T05:49:10.156Z,8.27
2018-09-17T05:51:43.335Z,7.80
2018-09-17T05:54:16.248Z,8.97
2018-09-17T05:56:49.385Z,6.17
2018-09-17T05:59:23.046Z,8.43
2018-09-17T06:01:55.998Z,8.63
2018-09-17T06:04:28.808Z,8.90
2018-09-17T06:07:01.671Z,10.87
2018-09-17T06:09:34.631Z,7.60
2018-09-17T06:12:07.684Z,10.00
2018-09-17T06:14:40.674Z,9.67
2018-09-17T06:17:13.837Z,10.27
2018-09-17T06:19:47.126Z,7.43
2018-09-17T06:22:19.964Z,7.73
2018-09-17T06:24:52.682Z,12.90
2018-09-17T06:27:25.975Z,7.57
2018-09-17T06:29:59.372Z,10.63
2018-09-17T06:32:32.486Z,7.77
2018-09-17T06:35:05.660Z,12.93
2018-09-17T06:37:38.477Z,7.63
2018-09-17T06:40:11.636Z,7.43
2018-09-17T06:42:44.500Z,8.97
2018-09-17T06:45:17.667Z,8.63
2018-09-17T06:47:50.648Z,8.47
2018-09-17T06:50:24.048Z,8.37
2018-09-17T06:52:57.175Z,7.27
2018-09-17T06:55:30.146Z,7.30
2018-09-17T06:58:03.115Z,10.73
2018-09-17T07:00:36.156Z,8.37
2018-09-17T07:03:08.869Z,9.70
2018-09-17T07:05:42.037Z,12.67
2018-09-17T07:08:14.758Z,11.03
2018-09-17T07:10:47.851Z,9.77
2018-09-17T07:13:21.123Z,8.03
2018-09-17T07:15:54.083Z,11.37
2018-09-17T07:18:26.813Z,10.23
2018-09-17T07:20:59.773Z,7.20
2018-09-17T07:23:32.780Z,7.97
2018-09-17T07:26:06.063Z,10.40
2018-09-17T07:28:39.212Z,8.13
2018-09-17T07:31:12.011Z,7.40
2018-09-17T07:33:45.297Z,9.93
2018-09-17T07:36:18.805Z,7.70
2018-09-17T07:38:52.273Z,8.80
2018-09-17T07:41:25.002Z,10.07
2018-09-17T07:43:57.821Z,8.10
2018-09-17T07:46:31.034Z,9.60
2018-09-17T07:49:03.831Z,9.03
2018-09-17T07:51:36.647Z,6.70
2018-09-17T07:54:09.605Z,7.23
2018-09-17T07:56:42.763Z,8.07
2018-09-17T07:59:16.032Z,10.63
2018-09-17T08:01:48.963Z,11.53
2018-09-17T08:04:21.914Z,7.90
2018-09-17T08:06:54.998Z,8.23
2018-09-17T08:09:27.795Z,9.33
2018-09-17T08:12:01.337Z,7.00
2018-09-17T08:14:34.588Z,8.87
2018-09-17T08:17:08.117Z,8.93
2018-09-17T08:19:41.478Z,10.60
2018-09-17T08:22:15.047Z,9.80
2018-09-17T08:24:48.072Z,8.83
2018-09-17T08:27:21.034Z,8.13
2018-09-17T08:29:54.056Z,7.13
2018-09-17T08:32:27.017Z,9.27
2018-09-17T08:34:59.877Z,7.03
2018-09-17T08:37:32.680Z,10.43
2018-09-17T08:40:05.837Z,6.63
2018-09-17T08:42:38.713Z,7.00
2018-09-17T08:45:12.285Z,8.03
2018-09-17T08:47:45.667Z,7.33
2018-09-17T08:50:18.486Z,7.37
2018-09-17T08:52:51.810Z,7.43
2018-09-17T08:55:29.080Z,7.07
2018-09-17T08:58:06.432Z,9.07
2018-09-17T09:00:43.584Z,8.43
2018-09-17T09:03:20.032Z,5.67
2018-09-17T09:05:57.212Z,11.23
2018-09-17T09:08:30.463Z,7.97
2018-09-17T09:11:07.501Z,10.93
2018-09-17T09:13:44.619Z,11.30
2018-09-17T09:16:18.140Z,9.77
2018-09-17T09:18:50.993Z,8.97
2018-09-17T09:21:23.889Z,9.10
2018-09-17T09:23:57.022Z,13.13
2018-09-17T09:26:30.112Z,7.87
2018-09-17T09:29:03.323Z,7.97
2018-09-17T09:31:36.283Z,13.20
2018-09-17T09:34:09.146Z,11.70
2018-09-17T09:36:42.533Z,12.37
2018-09-17T09:39:15.809Z,9.23
2018-09-17T09:41:48.623Z,12.50
2018-09-17T09:44:21.624Z,10.07
2018-09-17T09:46:54.449Z,6.90
2018-09-17T09:49:27.187Z,6.30
2018-09-17T09:52:00.187Z,7.10
2018-09-17T09:54:33.154Z,6.90
2018-09-17T09:57:06.328Z,7.03
2018-09-17T09:59:39.322Z,7.73
2018-09-17T10:02:16.335Z,6.30
2018-09-17T10:04:49.252Z,11.13
2018-09-17T10:07:22.440Z,9.23
2018-09-17T10:09:59.346Z,8.97
2018-09-17T10:12:36.453Z,13.37
2018-09-17T10:15:13.627Z,12.70
2018-09-17T10:17:50.823Z,10.67
2018-09-17T10:20:23.589Z,8.87
2018-09-17T10:22:56.445Z,9.90
2018-09-17T10:25:29.639Z,8.97
2018-09-17T10:28:02.432Z,12.20
2018-09-17T10:30:35.380Z,7.47
2018-09-17T10:33:08.316Z,9.53
2018-09-17T10:35:41.178Z,13.30
2018-09-17T10:38:14.326Z,13.17
2018-09-17T10:40:47.053Z,21.77
2018-09-17T10:43:19.883Z,19.03
2018-09-17T10:45:52.874Z,19.67
2018-09-17T10:48:26.092Z,13.93
2018-09-17T10:50:59.263Z,14.47
2018-09-17T10:53:32.245Z,13.37
2018-09-17T10:56:05.206Z,11.40
2018-09-17T10:58:38.187Z,9.00
2018-09-17T11:01:10.928Z,10.50
2018-09-17T11:03:44.316Z,9.30
2018-09-17T11:06:17.748Z,13.87
2018-09-17T11:08:50.584Z,12.73
2018-09-17T11:11:23.456Z,15.50
2018-09-17T11:13:56.466Z,12.43
2018-09-17T11:16:29.170Z,14.20
2018-09-17T11:19:02.121Z,14.23
2018-09-17T11:21:34.992Z,15.80
2018-09-17T11:24:07.952Z,12.77
2018-09-17T11:26:40.981Z,12.80
2018-09-17T11:29:14.422Z,16.97
2018-09-17T11:31:47.129Z,11.47
2018-09-17T11:34:20.064Z,13.60
2018-09-17T11:36:53.664Z,10.93
2018-09-17T11:39:27.338Z,9.43
2018-09-17T11:42:00.336Z,13.83
2018-09-17T11:44:33.157Z,11.83
2018-09-17T11:47:06.087Z,10.60
2018-09-17T11:49:39.051Z,12.20
2018-09-17T11:52:11.938Z,12.63
2018-09-17T11:54:44.814Z,12.37
2018-09-17T11:57:17.769Z,11.33
2018-09-17T11:59:51.139Z,11.17
2018-09-17T12:02:28.376Z,9.77
2018-09-17T12:05:04.800Z,13.50
2018-09-17T12:07:43.333Z,12.70
2018-09-17T12:10:16.220Z,17.90
2018-09-17T12:12:49.599Z,12.07
2018-09-17T12:15:22.561Z,13.43
2018-09-17T12:17:55.649Z,22.37
2018-09-17T12:20:28.365Z,14.33
2018-09-17T12:23:01.275Z,16.17
2018-09-17T12:25:34.522Z,17.67
2018-09-17T12:28:07.592Z,13.23
2018-09-17T12:30:40.761Z,20.10
2018-09-17T12:33:13.659Z,11.80
2018-09-17T12:35:46.621Z,13.20
2018-09-17T12:38:19.493Z,13.10
2018-09-17T12:40:52.703Z,11.40
2018-09-17T12:43:25.688Z,14.50
2018-09-17T12:45:59.551Z,14.63
2018-09-17T12:48:33.117Z,15.97
2018-09-17T12:51:07.109Z,15.87
2018-09-17T12:53:40.389Z,14.50
2018-09-17T12:56:13.748Z,13.83
2018-09-17T12:58:47.202Z,14.53
2018-09-17T13:01:20.332Z,11.43
2018-09-17T13:03:53.297Z,11.90
2018-09-17T13:06:26.238Z,11.73
2018-09-17T13:08:59.460Z,11.57
2018-09-17T13:11:32.429Z,12.07
2018-09-17T13:14:05.275Z,14.50
2018-09-17T13:16:40.564Z,11.87
2018-09-17T13:19:14.483Z,14.97
2018-09-17T13:21:48.431Z,16.83
2018-09-17T13:24:21.593Z,12.67
2018-09-17T13:26:54.673Z,11.83
2018-09-17T13:29:28.369Z,14.70
2018-09-17T13:32:01.668Z,15.30
2018-09-17T13:34:34.960Z,16.73
2018-09-17T13:37:09.757Z,17.47
2018-09-17T13:39:43.016Z,12.80
2018-09-17T13:42:16.466Z,19.83
2018-09-17T13:44:51.087Z,11.90
2018-09-17T13:47:23.951Z,12.60
2018-09-17T13:49:57.198Z,19.23
2018-09-17T13:52:30.231Z,15.87
2018-09-17T13:55:03.064Z,15.70
2018-09-17T13:57:36.287Z,15.23
2018-09-17T14:00:09.560Z,12.70
2018-09-17T14:02:42.862Z,14.43
2018-09-17T14:05:15.761Z,17.50
2018-09-17T14:07:48.699Z,13.70
2018-09-17T14:10:21.828Z,15.17
2018-09-17T14:12:54.896Z,15.10
2018-09-17T14:15:28.268Z,11.93
2018-09-17T14:18:03.358Z,10.90
2018-09-17T14:20:36.452Z,13.97
2018-09-17T14:23:09.590Z,13.07
2018-09-17T14:25:44.114Z,17.07
2018-09-17T14:28:17.650Z,16.27
2018-09-17T14:30:51.060Z,10.43
2018-09-17T14:33:28.358Z,16.27
2018-09-17T14:36:02.570Z,14.77
2018-09-17T14:38:35.440Z,20.43
2018-09-17T14:41:08.898Z,18.43
2018-09-17T14:43:42.802Z,16.03
2018-09-17T14:46:17.377Z,11.87
2018-09-17T14:48:50.226Z,12.20
2018-09-17T14:51:23.724Z,11.80
2018-09-17T14:53:58.170Z,13.13
2018-09-17T14:56:31.056Z,7.63
2018-09-17T14:59:04.652Z,8.23
2018-09-17T15:01:38.033Z,13.70
2018-09-17T15:04:11.258Z,9.07
2018-09-17T15:06:44.628Z,13.27
2018-09-17T15:09:20.649Z,14.97
2018-09-17T15:11:54.918Z,10.27
2018-09-17T15:14:28.384Z,16.05
2018-09-17T15:17:02.373Z,6.43
2018-09-17T15:19:36.481Z,12.18
2018-09-17T15:22:11.140Z,4.92
2018-09-17T15:40:11.469Z,13.65
2018-09-17T15:42:45.006Z,8.60
2018-09-17T15:45:19.345Z,6.70
2018-09-17T15:47:53.283Z,9.30
2018-09-17T15:50:26.823Z,11.08
2018-09-17T15:53:00.972Z,11.00
2018-09-17T15:55:35.170Z,18.23
2018-09-17T15:58:08.239Z,12.37
2018-09-17T16:00:41.517Z,15.45
2018-09-17T16:03:14.258Z,10.55
2018-09-17T16:05:47.619Z,11.93
2018-09-17T16:08:21.927Z,13.65
2018-09-17T16:10:55.767Z,7.67
2018-09-17T16:13:30.103Z,6.70
2018-09-17T16:16:04.543Z,11.68
2018-09-17T16:18:38.759Z,8.78
2018-09-17T16:21:12.886Z,7.17
2018-09-17T16:23:48.784Z,18.50
2018-09-17T16:26:22.072Z,10.20
2018-09-17T16:28:55.390Z,9.70
2018-09-17T16:31:29.349Z,6.15
2018-09-17T16:34:02.648Z,6.37
2018-09-17T16:36:35.881Z,7.08
2018-09-17T16:39:11.717Z,5.47
2018-09-17T16:41:45.866Z,4.47
2018-09-17T16:44:19.053Z,6.67
2018-09-17T16:46:53.113Z,6.42
2018-09-17T16:49:25.974Z,9.25
2018-09-17T16:51:59.384Z,4.45
2018-09-17T16:54:33.808Z,4.67
2018-09-17T16:57:07.314Z,8.43
2018-09-17T16:59:41.430Z,4.95
2018-09-17T17:02:15.652Z,9.60
2018-09-17T17:04:49.202Z,5.55
2018-09-17T17:07:23.845Z,5.12
2018-09-17T17:09:58.547Z,7.47
2018-09-17T17:12:32.523Z,6.95
2018-09-17T17:15:06.272Z,6.50
2018-09-17T17:17:39.846Z,5.65
2018-09-17T17:20:12.768Z,9.35
2018-09-17T17:22:46.981Z,11.35
2018-09-17T17:25:20.462Z,7.15
2018-09-17T17:27:55.211Z,7.53
2018-09-17T17:30:29.672Z,16.62
2018-09-17T17:33:03.752Z,10.03
2018-09-17T17:35:38.386Z,10.78
2018-09-17T17:38:11.460Z,13.32
2018-09-17T17:40:44.591Z,10.60
2018-09-17T17:43:17.680Z,7.45
2018-09-17T17:45:51.072Z,6.30
2018-09-17T17:48:24.654Z,6.10
2018-09-17T17:50:57.577Z,6.35
2018-09-17T17:53:31.705Z,6.87
2018-09-17T17:56:05.798Z,12.47
2018-09-17T17:58:39.604Z,14.43
2018-09-17T18:01:14.599Z,11.15
2018-09-17T18:03:47.659Z,9.95
2018-09-17T18:06:21.544Z,12.43
2018-09-17T18:08:55.339Z,7.15
2018-09-17T18:11:28.438Z,6.72
2018-09-17T18:14:01.469Z,13.30
2018-09-17T18:16:35.120Z,8.35
2018-09-17T18:19:08.084Z,6.95
2018-09-17T18:21:41.254Z,8.40
2018-09-17T18:24:14.427Z,8.38
2018-09-17T18:26:48.474Z,7.45
2018-09-17T18:29:23.217Z,6.97
2018-09-17T18:31:56.245Z,6.42
2018-09-17T18:34:29.547Z,11.70
2018-09-17T18:37:03.140Z,7.95
2018-09-17T18:39:36.481Z,9.40
2018-09-17T18:42:09.988Z,8.03
2018-09-17T18:44:43.038Z,13.58
2018-09-17T18:47:16.529Z,4.87
2018-09-17T18:49:49.321Z,12.65
2018-09-17T18:52:22.119Z,7.67
2018-09-17T18:54:57.233Z,13.98
2018-09-17T18:57:31.170Z,8.68
2018-09-17T19:00:05.364Z,7.75
2018-09-17T19:02:38.778Z,7.95
2018-09-17T19:05:12.318Z,13.62
2018-09-17T19:07:46.340Z,9.70
2018-09-17T19:10:19.725Z,8.50
2018-09-17T19:12:53.937Z,9.30
2018-09-17T19:15:31.893Z,8.80
2018-09-17T19:18:10.187Z,14.47
2018-09-17T19:20:43.302Z,22.52
2018-09-17T19:23:20.794Z,13.85
2018-09-17T19:25:55.938Z,29.65
2018-09-17T19:28:33.216Z,25.25
2018-09-17T19:31:06.091Z,8.55
2018-09-17T19:33:41.122Z,6.72
2018-09-17T19:36:14.644Z,10.93
2018-09-17T19:38:53.137Z,9.25
2018-09-17T19:41:27.531Z,10.95
2018-09-17T19:44:03.676Z,8.98
2018-09-17T19:46:38.053Z,14.73
2018-09-17T19:49:13.898Z,15.53
2018-09-17T19:51:51.029Z,10.93
2018-09-17T19:54:24.443Z,12.63
2018-09-17T19:56:59.064Z,20.52
2018-09-17T19:59:37.533Z,13.75
2018-09-17T20:02:11.494Z,19.45
2018-09-17T20:04:49.173Z,12.65
2018-09-17T20:07:22.541Z,10.82
2018-09-17T20:09:55.922Z,15.08
2018-09-17T20:12:30.420Z,5.92
2018-09-17T20:15:07.951Z,9.50
2018-09-17T20:17:42.769Z,5.15
2018-09-17T20:20:16.343Z,14.63
2018-09-17T20:22:49.445Z,10.45
2018-09-17T20:25:23.121Z,11.75
2018-09-17T20:27:57.129Z,7.92
2018-09-17T20:30:31.008Z,10.25
2018-09-17T20:33:05.005Z,8.15
2018-09-17T20:35:40.135Z,7.87
2018-09-17T20:38:13.739Z,18.07
2018-09-17T20:40:48.238Z,8.95
2018-09-17T20:43:21.884Z,15.85
2018-09-17T20:45:56.092Z,12.40
2018-09-17T20:48:30.049Z,13.13
2018-09-17T20:51:04.956Z,14.78
2018-09-17T20:53:39.758Z,6.12
2018-09-17T20:56:14.346Z,10.60
2018-09-17T20:58:49.221Z,18.42
2018-09-17T21:01:29.536Z,13.80
2018-09-17T21:04:02.399Z,12.33
2018-09-17T21:06:35.496Z,13.00
2018-09-17T21:09:11.614Z,10.28
2018-09-17T21:11:47.099Z,8.30
2018-09-17T21:14:21.767Z,3.92
2018-09-17T21:16:55.369Z,11.68
2018-09-17T21:19:31.182Z,10.90
2018-09-17T21:22:05.326Z,10.28
2018-09-17T21:24:38.789Z,19.92
2018-09-17T21:27:13.943Z,8.30
2018-09-17T21:29:47.367Z,7.87
2018-09-17T21:32:20.802Z,7.90
2018-09-17T21:34:56.562Z,6.45
2018-09-17T21:37:30.911Z,8.48
2018-09-17T21:40:03.670Z,7.67
2018-09-17T21:42:37.667Z,8.55
2018-09-17T21:45:12.233Z,8.63
2018-09-17T21:47:45.757Z,7.50
2018-09-17T21:50:19.252Z,6.80
2018-09-17T21:52:52.056Z,7.22
2018-09-17T21:55:24.981Z,7.28
2018-09-17T21:57:58.617Z,9.33
2018-09-17T22:01:02.732Z,8.48
2018-09-17T22:03:36.542Z,12.30
2018-09-17T22:06:09.288Z,15.58
2018-09-17T22:08:42.640Z,8.53
2018-09-17T22:11:16.309Z,6.22
2018-09-17T22:13:50.116Z,5.65
2018-09-17T22:16:23.230Z,8.90
2018-09-17T22:18:56.706Z,6.47
2018-09-17T22:21:30.203Z,9.60
2018-09-17T22:24:03.919Z,7.33
2018-09-17T22:26:37.510Z,4.55
2018-09-17T22:29:11.550Z,5.55
2018-09-17T22:31:44.855Z,6.25
2018-09-17T22:34:19.365Z,9.58
2018-09-17T22:36:52.778Z,16.62
2018-09-17T22:39:30.050Z,11.88
2018-09-17T22:42:03.471Z,14.60
2018-09-17T22:44:40.808Z,8.38
2018-09-17T22:47:16.371Z,7.25
2018-09-17T22:49:50.148Z,7.12
2018-09-17T22:52:23.772Z,7.40
2018-09-17T22:54:57.581Z,15.35
2018-09-17T22:57:30.849Z,13.90
2018-09-17T23:00:05.097Z,15.80
2018-09-17T23:02:38.629Z,10.05
2018-09-17T23:05:12.280Z,7.33
2018-09-17T23:07:46.783Z,8.60
2018-09-17T23:10:20.658Z,8.80
2018-09-17T23:12:54.330Z,7.35
2018-09-17T23:15:27.802Z,13.32
2018-09-17T23:18:01.825Z,10.87
2018-09-17T23:20:35.806Z,8.38
2018-09-17T23:23:08.807Z,10.17
2018-09-17T23:25:41.890Z,10.60
2018-09-17T23:28:15.628Z,7.97
2018-09-17T23:30:50.057Z,11.53
2018-09-17T23:33:23.145Z,13.23
2018-09-17T23:35:56.433Z,12.53
2018-09-17T23:38:29.780Z,8.40
2018-09-17T23:41:04.179Z,6.13
2018-09-17T23:43:37.953Z,11.43
2018-09-17T23:46:10.875Z,17.33
2018-09-17T23:48:43.867Z,12.80
2018-09-17T23:51:16.713Z,10.90
2018-09-17T23:53:49.363Z,14.40
2018-09-17T23:56:22.575Z,14.47
2018-09-17T23:58:55.675Z,10.10
